메인 페이지
METAR-TAF:

METAR-TAF

공항 :

Rygge, 노르웨이

위도: 59-23N, 경도: 010-47E, 고도: 5m

현재 날씨관측

예보는 15분 전, 07:50시(UTC)에 발표되었습니다.
여러 방향의 바람 2kt
온도 18°C
습도 83%
기압 1012 hPa
시정 10km 이상
고도 500ft 상공 구름 조금
고도 800ft 상공 구름 보통
고도 3600ft 상공 구름 많음

METAR: ENRY 230750Z VRB02KT 9999 FEW005 SCT008 BKN036 18/15 Q1012 NOSIG

시각: 10:05 (08:05 UTC)

예보

예보는 1 시간 27분 전, 06:38시(UTC)에 발표되었습니다.
예보 대상 시간: 23일 06시부터 24일 06시까지 (UTC)
여러 방향의 바람 3kt
시정 10km 이상
고도 1200ft 상공 구름 조금
고도 3000ft 상공 구름 보통
확률 30% :
일시적
23일 06시부터 23일 09시까지 (UTC)
고도 600ft 상공 구름 많음
전환 중
23일 10시부터 23일 12시까지 (UTC)
남남서10kt
일시적
23일 15시부터 23일 24시까지 (UTC)
고도 2500ft 상공 구름 조금, 타워링 적운.
고도 3000ft 상공 구름 보통
전환 중
23일 20시부터 23일 22시까지 (UTC)
여러 방향의 바람 3kt
확률 30% :
일시적
24일 00시부터 24일 06시까지 (UTC)
고도 800ft 상공 구름 많음
고도 2500ft 상공 구름 보통, 적란운.
뇌우, 비
전환 중
24일 02시부터 24일 04시까지 (UTC)
10kt

TAF: ENRY 230638Z 2306/2406 VRB03KT 9999 FEW012 SCT030 PROB30 TEMPO 2306/2309 BKN006 BECMG 2310/2312 20010KT TEMPO 2315/2324 FEW025TCU SCT030 BECMG 2320/2322 VRB03KT PROB30 TEMPO 2400/2406 TSRA BKN008 SCT025CB BECMG 2402/2404 01010KT

4,000개 이상의 공항 관측 자료 및 예보 (METAR 및 TAF 보고).

지도상에서 검색 가능한 기상관측소가 노란 점과 빨간 점으로 표시되어 있습니다.

기상관측소 명을 보려면 표시 위로 마우스를 이동하세요.

날씨 관측과 예보를 보려면 클릭하세요.

지도 변경 : 확대하려면 엑스 표시가 있는 녹색 버튼, 축소하려면 빼기 표시가 있는 녹색 버튼, 다음 페이지의 지도를 보려면 녹색 화살표를 클릭하세요.


METAR-TAF: